Phoenix, Arizona
Traffic Map
Current Weather Conditions
Phoenix, Arizona
Few Clouds
Few Clouds
34°
Feels Like: 34°
Wind Chill: 34° Ceiling: Unl
Heat Index: 34° Visibility: 10mi
Dew Point: -1° Wind: 10mph
Humidity: 11% Direction: 250° (WSW)
Pressure: 29.79in Gusts: 0mph
Raw Report DataKPHX 312351Z 25009KT 10SM FEW120 FEW250 34/M01 A2979 RMK AO2 SLP069 T03391011 10350 20289 56029
Traffic Incident Summary
Active as of:
Severity:
Category:
InformationThere was an issue retrieving the traffic information for this location. Please try a different location or try again shortly.
Advertisements
Track Severe Weather on mobile